sensor_id;sensor_type;location;lat;lon;timestamp;P1;durP1;ratioP1;P2;durP2;ratioP2
54372;SDS011;40271;48.798;10.178;2022-11-23T00:03:54;8.05;;;3.53;;
54372;SDS011;40271;48.798;10.178;2022-11-23T00:06:21;9.52;;;3.95;;
54372;SDS011;40271;48.798;10.178;2022-11-23T00:08:47;9.43;;;3.70;;
54372;SDS011;40271;48.798;10.178;2022-11-23T00:11:14;7.60;;;4.00;;
54372;SDS011;40271;48.798;10.178;2022-11-23T00:13:40;9.65;;;4.32;;
54372;SDS011;40271;48.798;10.178;2022-11-23T00:16:07;6.30;;;3.83;;
54372;SDS011;40271;48.798;10.178;2022-11-23T00:18:33;6.43;;;3.55;;
54372;SDS011;40271;48.798;10.178;2022-11-23T00:20:59;8.10;;;3.45;;
54372;SDS011;40271;48.798;10.178;2022-11-23T00:23:25;7.35;;;3.58;;
54372;SDS011;40271;48.798;10.178;2022-11-23T00:25:51;6.70;;;3.70;;
54372;SDS011;40271;48.798;10.178;2022-11-23T00:28:17;7.03;;;3.72;;
54372;SDS011;40271;48.798;10.178;2022-11-23T00:30:46;8.60;;;4.15;;
54372;SDS011;40271;48.798;10.178;2022-11-23T00:33:13;9.93;;;4.15;;
54372;SDS011;40271;48.798;10.178;2022-11-23T00:35:39;9.52;;;4.68;;
54372;SDS011;40271;48.798;10.178;2022-11-23T00:38:05;9.23;;;4.20;;
54372;SDS011;40271;48.798;10.178;2022-11-23T00:40:31;8.40;;;3.75;;
54372;SDS011;40271;48.798;10.178;2022-11-23T00:42:57;11.80;;;4.43;;
54372;SDS011;40271;48.798;10.178;2022-11-23T00:45:23;7.88;;;3.95;;
54372;SDS011;40271;48.798;10.178;2022-11-23T00:47:49;8.52;;;4.35;;
54372;SDS011;40271;48.798;10.178;2022-11-23T00:50:15;8.02;;;4.22;;
54372;SDS011;40271;48.798;10.178;2022-11-23T00:52:41;8.07;;;3.67;;
54372;SDS011;40271;48.798;10.178;2022-11-23T00:55:07;8.00;;;3.90;;
54372;SDS011;40271;48.798;10.178;2022-11-23T00:57:33;8.65;;;3.80;;
54372;SDS011;40271;48.798;10.178;2022-11-23T01:00:00;6.70;;;3.33;;
54372;SDS011;40271;48.798;10.178;2022-11-23T01:02:26;7.03;;;3.45;;
54372;SDS011;40271;48.798;10.178;2022-11-23T01:04:52;8.10;;;3.35;;
54372;SDS011;40271;48.798;10.178;2022-11-23T01:07:18;9.90;;;3.55;;
54372;SDS011;40271;48.798;10.178;2022-11-23T01:09:44;6.97;;;3.25;;
54372;SDS011;40271;48.798;10.178;2022-11-23T01:12:10;6.25;;;2.88;;
54372;SDS011;40271;48.798;10.178;2022-11-23T01:14:36;6.93;;;2.95;;
54372;SDS011;40271;48.798;10.178;2022-11-23T01:17:02;6.47;;;2.85;;
54372;SDS011;40271;48.798;10.178;2022-11-23T01:19:28;4.18;;;2.83;;
54372;SDS011;40271;48.798;10.178;2022-11-23T01:21:54;5.05;;;2.78;;
54372;SDS011;40271;48.798;10.178;2022-11-23T01:24:20;5.13;;;2.83;;
54372;SDS011;40271;48.798;10.178;2022-11-23T01:26:53;7.07;;;3.10;;
54372;SDS011;40271;48.798;10.178;2022-11-23T01:29:19;6.82;;;3.38;;
54372;SDS011;40271;48.798;10.178;2022-11-23T01:31:46;5.35;;;3.05;;
54372;SDS011;40271;48.798;10.178;2022-11-23T01:34:12;5.95;;;3.50;;
54372;SDS011;40271;48.798;10.178;2022-11-23T01:36:38;10.90;;;3.88;;
54372;SDS011;40271;48.798;10.178;2022-11-23T01:39:04;8.07;;;3.58;;
54372;SDS011;40271;48.798;10.178;2022-11-23T01:41:31;8.02;;;4.53;;
54372;SDS011;40271;48.798;10.178;2022-11-23T01:43:58;10.70;;;4.25;;
54372;SDS011;40271;48.798;10.178;2022-11-23T01:46:24;7.10;;;3.65;;
54372;SDS011;40271;48.798;10.178;2022-11-23T01:49:03;9.65;;;4.22;;
54372;SDS011;40271;48.798;10.178;2022-11-23T01:51:31;10.40;;;4.93;;
54372;SDS011;40271;48.798;10.178;2022-11-23T01:54:02;8.95;;;4.20;;
54372;SDS011;40271;48.798;10.178;2022-11-23T01:56:31;8.23;;;4.13;;
54372;SDS011;40271;48.798;10.178;2022-11-23T01:58:59;7.47;;;3.45;;
54372;SDS011;40271;48.798;10.178;2022-11-23T02:01:27;7.20;;;3.88;;
54372;SDS011;40271;48.798;10.178;2022-11-23T02:03:53;12.20;;;4.50;;
54372;SDS011;40271;48.798;10.178;2022-11-23T02:06:20;8.85;;;4.13;;
54372;SDS011;40271;48.798;10.178;2022-11-23T02:08:47;7.82;;;3.83;;
54372;SDS011;40271;48.798;10.178;2022-11-23T02:11:14;7.40;;;4.00;;
54372;SDS011;40271;48.798;10.178;2022-11-23T02:13:41;9.57;;;4.30;;
54372;SDS011;40271;48.798;10.178;2022-11-23T02:16:08;8.98;;;4.18;;
54372;SDS011;40271;48.798;10.178;2022-11-23T02:18:34;5.72;;;3.83;;
54372;SDS011;40271;48.798;10.178;2022-11-23T02:21:00;9.75;;;4.28;;
54372;SDS011;40271;48.798;10.178;2022-11-23T02:26:13;9.85;;;4.20;;
54372;SDS011;40271;48.798;10.178;2022-11-23T02:28:42;7.28;;;3.92;;
54372;SDS011;40271;48.798;10.178;2022-11-23T02:31:09;9.52;;;4.45;;
54372;SDS011;40271;48.798;10.178;2022-11-23T02:33:38;8.15;;;4.63;;
54372;SDS011;40271;48.798;10.178;2022-11-23T02:36:22;5.85;;;3.58;;
54372;SDS011;40271;48.798;10.178;2022-11-23T02:38:52;6.65;;;3.67;;
54372;SDS011;40271;48.798;10.178;2022-11-23T02:41:18;6.90;;;3.70;;
54372;SDS011;40271;48.798;10.178;2022-11-23T02:43:44;5.47;;;3.20;;
54372;SDS011;40271;48.798;10.178;2022-11-23T02:46:12;6.57;;;4.03;;
54372;SDS011;40271;48.798;10.178;2022-11-23T02:48:38;4.03;;;3.30;;
54372;SDS011;40271;48.798;10.178;2022-11-23T02:51:04;5.28;;;3.80;;
54372;SDS011;40271;48.798;10.178;2022-11-23T02:53:30;5.78;;;3.35;;
54372;SDS011;40271;48.798;10.178;2022-11-23T02:55:56;8.57;;;3.72;;
54372;SDS011;40271;48.798;10.178;2022-11-23T02:58:22;5.80;;;3.15;;
54372;SDS011;40271;48.798;10.178;2022-11-23T03:00:48;6.70;;;3.38;;
54372;SDS011;40271;48.798;10.178;2022-11-23T03:03:14;8.70;;;3.85;;
54372;SDS011;40271;48.798;10.178;2022-11-23T03:05:40;6.07;;;3.95;;
54372;SDS011;40271;48.798;10.178;2022-11-23T03:08:06;7.55;;;4.40;;
54372;SDS011;40271;48.798;10.178;2022-11-23T03:10:32;8.00;;;3.55;;
54372;SDS011;40271;48.798;10.178;2022-11-23T03:12:58;5.15;;;3.33;;
54372;SDS011;40271;48.798;10.178;2022-11-23T03:15:24;6.65;;;3.22;;
54372;SDS011;40271;48.798;10.178;2022-11-23T03:17:50;6.78;;;3.30;;
54372;SDS011;40271;48.798;10.178;2022-11-23T03:20:16;9.70;;;3.33;;
54372;SDS011;40271;48.798;10.178;2022-11-23T03:22:43;5.65;;;3.05;;
54372;SDS011;40271;48.798;10.178;2022-11-23T03:25:09;5.57;;;3.05;;
54372;SDS011;40271;48.798;10.178;2022-11-23T03:27:36;11.02;;;4.25;;
54372;SDS011;40271;48.798;10.178;2022-11-23T03:30:02;8.35;;;4.28;;
54372;SDS011;40271;48.798;10.178;2022-11-23T03:32:28;8.27;;;4.18;;
54372;SDS011;40271;48.798;10.178;2022-11-23T03:34:54;7.57;;;4.22;;
54372;SDS011;40271;48.798;10.178;2022-11-23T03:37:20;7.50;;;3.92;;
54372;SDS011;40271;48.798;10.178;2022-11-23T03:39:46;7.20;;;3.70;;
54372;SDS011;40271;48.798;10.178;2022-11-23T03:42:12;5.10;;;3.22;;
54372;SDS011;40271;48.798;10.178;2022-11-23T03:44:38;6.38;;;3.83;;
54372;SDS011;40271;48.798;10.178;2022-11-23T03:47:04;6.13;;;3.00;;
54372;SDS011;40271;48.798;10.178;2022-11-23T03:49:30;6.53;;;3.10;;
54372;SDS011;40271;48.798;10.178;2022-11-23T03:51:56;4.90;;;3.00;;
54372;SDS011;40271;48.798;10.178;2022-11-23T03:54:22;6.57;;;3.35;;
54372;SDS011;40271;48.798;10.178;2022-11-23T03:56:48;6.20;;;3.33;;
54372;SDS011;40271;48.798;10.178;2022-11-23T03:59:14;8.43;;;3.53;;
54372;SDS011;40271;48.798;10.178;2022-11-23T04:01:40;5.53;;;3.20;;
54372;SDS011;40271;48.798;10.178;2022-11-23T04:04:06;5.85;;;3.33;;
54372;SDS011;40271;48.798;10.178;2022-11-23T04:06:32;5.95;;;3.35;;
54372;SDS011;40271;48.798;10.178;2022-11-23T04:08:59;6.53;;;3.47;;
54372;SDS011;40271;48.798;10.178;2022-11-23T04:11:25;5.63;;;3.67;;
54372;SDS011;40271;48.798;10.178;2022-11-23T04:13:51;6.43;;;3.05;;
54372;SDS011;40271;48.798;10.178;2022-11-23T04:16:17;6.47;;;3.10;;
54372;SDS011;40271;48.798;10.178;2022-11-23T04:18:43;5.30;;;2.97;;
54372;SDS011;40271;48.798;10.178;2022-11-23T04:21:09;5.50;;;3.15;;
54372;SDS011;40271;48.798;10.178;2022-11-23T04:23:35;9.18;;;3.28;;
54372;SDS011;40271;48.798;10.178;2022-11-23T04:26:01;9.50;;;3.20;;
54372;SDS011;40271;48.798;10.178;2022-11-23T04:28:27;7.25;;;3.38;;
54372;SDS011;40271;48.798;10.178;2022-11-23T04:30:53;7.15;;;3.05;;
54372;SDS011;40271;48.798;10.178;2022-11-23T04:33:19;4.80;;;3.20;;
54372;SDS011;40271;48.798;10.178;2022-11-23T04:35:45;4.13;;;2.60;;
54372;SDS011;40271;48.798;10.178;2022-11-23T04:38:11;8.52;;;3.80;;
54372;SDS011;40271;48.798;10.178;2022-11-23T04:40:37;5.80;;;3.10;;
54372;SDS011;40271;48.798;10.178;2022-11-23T04:43:03;10.88;;;4.05;;
54372;SDS011;40271;48.798;10.178;2022-11-23T04:45:30;5.70;;;3.40;;
54372;SDS011;40271;48.798;10.178;2022-11-23T04:47:56;6.90;;;3.75;;
54372;SDS011;40271;48.798;10.178;2022-11-23T04:50:22;8.57;;;3.83;;
54372;SDS011;40271;48.798;10.178;2022-11-23T04:52:48;6.13;;;3.65;;
54372;SDS011;40271;48.798;10.178;2022-11-23T04:55:14;5.22;;;3.50;;
54372;SDS011;40271;48.798;10.178;2022-11-23T04:57:40;8.85;;;3.80;;
54372;SDS011;40271;48.798;10.178;2022-11-23T05:00:06;6.95;;;3.80;;
54372;SDS011;40271;48.798;10.178;2022-11-23T05:02:33;12.50;;;4.32;;
54372;SDS011;40271;48.798;10.178;2022-11-23T05:04:59;10.48;;;4.80;;
54372;SDS011;40271;48.798;10.178;2022-11-23T05:07:24;6.10;;;3.78;;
54372;SDS011;40271;48.798;10.178;2022-11-23T05:09:50;7.55;;;4.07;;
54372;SDS011;40271;48.798;10.178;2022-11-23T05:12:16;7.68;;;3.75;;
54372;SDS011;40271;48.798;10.178;2022-11-23T05:14:43;6.43;;;3.75;;
54372;SDS011;40271;48.798;10.178;2022-11-23T05:17:09;5.75;;;3.63;;
54372;SDS011;40271;48.798;10.178;2022-11-23T05:19:35;7.57;;;4.20;;
54372;SDS011;40271;48.798;10.178;2022-11-23T05:22:01;6.82;;;3.95;;
54372;SDS011;40271;48.798;10.178;2022-11-23T05:24:27;7.18;;;4.10;;
54372;SDS011;40271;48.798;10.178;2022-11-23T05:26:53;6.63;;;3.70;;
54372;SDS011;40271;48.798;10.178;2022-11-23T05:29:19;9.80;;;4.25;;
54372;SDS011;40271;48.798;10.178;2022-11-23T05:31:45;6.13;;;3.58;;
54372;SDS011;40271;48.798;10.178;2022-11-23T05:34:11;6.55;;;3.47;;
54372;SDS011;40271;48.798;10.178;2022-11-23T05:36:37;8.30;;;3.92;;
54372;SDS011;40271;48.798;10.178;2022-11-23T05:39:03;6.88;;;3.38;;
54372;SDS011;40271;48.798;10.178;2022-11-23T05:41:29;7.70;;;4.28;;
54372;SDS011;40271;48.798;10.178;2022-11-23T05:43:55;11.70;;;4.70;;
54372;SDS011;40271;48.798;10.178;2022-11-23T05:46:21;7.47;;;4.47;;
54372;SDS011;40271;48.798;10.178;2022-11-23T05:48:47;7.80;;;3.83;;
54372;SDS011;40271;48.798;10.178;2022-11-23T05:51:14;9.70;;;4.97;;
54372;SDS011;40271;48.798;10.178;2022-11-23T05:53:39;13.38;;;4.75;;
54372;SDS011;40271;48.798;10.178;2022-11-23T05:56:05;10.15;;;4.68;;
54372;SDS011;40271;48.798;10.178;2022-11-23T05:58:32;9.57;;;5.38;;
54372;SDS011;40271;48.798;10.178;2022-11-23T06:00:58;11.25;;;5.18;;
54372;SDS011;40271;48.798;10.178;2022-11-23T06:03:24;12.68;;;6.00;;
54372;SDS011;40271;48.798;10.178;2022-11-23T06:05:50;11.05;;;5.50;;
54372;SDS011;40271;48.798;10.178;2022-11-23T06:08:16;14.38;;;7.50;;
54372;SDS011;40271;48.798;10.178;2022-11-23T06:10:42;13.27;;;7.30;;
54372;SDS011;40271;48.798;10.178;2022-11-23T06:13:08;11.82;;;6.85;;
54372;SDS011;40271;48.798;10.178;2022-11-23T06:15:34;12.00;;;7.57;;
54372;SDS011;40271;48.798;10.178;2022-11-23T06:18:00;14.02;;;7.53;;
54372;SDS011;40271;48.798;10.178;2022-11-23T06:20:27;15.88;;;7.68;;
54372;SDS011;40271;48.798;10.178;2022-11-23T06:22:54;14.88;;;8.15;;
54372;SDS011;40271;48.798;10.178;2022-11-23T06:25:20;13.52;;;7.93;;
54372;SDS011;40271;48.798;10.178;2022-11-23T06:27:56;13.52;;;7.10;;
54372;SDS011;40271;48.798;10.178;2022-11-23T06:30:23;15.18;;;7.95;;
54372;SDS011;40271;48.798;10.178;2022-11-23T06:32:50;18.48;;;8.27;;
54372;SDS011;40271;48.798;10.178;2022-11-23T06:35:16;17.27;;;8.77;;
54372;SDS011;40271;48.798;10.178;2022-11-23T06:37:42;21.33;;;10.23;;
54372;SDS011;40271;48.798;10.178;2022-11-23T06:40:09;20.98;;;10.07;;
54372;SDS011;40271;48.798;10.178;2022-11-23T06:42:35;14.13;;;7.90;;
54372;SDS011;40271;48.798;10.178;2022-11-23T06:45:01;17.48;;;8.85;;
54372;SDS011;40271;48.798;10.178;2022-11-23T06:47:27;22.05;;;9.50;;
54372;SDS011;40271;48.798;10.178;2022-11-23T06:49:53;18.88;;;8.73;;
54372;SDS011;40271;48.798;10.178;2022-11-23T06:52:19;15.90;;;8.45;;
54372;SDS011;40271;48.798;10.178;2022-11-23T06:54:45;18.42;;;8.63;;
54372;SDS011;40271;48.798;10.178;2022-11-23T06:57:11;17.73;;;8.82;;
54372;SDS011;40271;48.798;10.178;2022-11-23T06:59:37;15.00;;;8.00;;
54372;SDS011;40271;48.798;10.178;2022-11-23T07:02:03;23.20;;;8.82;;
54372;SDS011;40271;48.798;10.178;2022-11-23T07:04:30;14.85;;;8.15;;
54372;SDS011;40271;48.798;10.178;2022-11-23T07:06:56;18.95;;;7.80;;
54372;SDS011;40271;48.798;10.178;2022-11-23T07:09:22;15.68;;;7.70;;
54372;SDS011;40271;48.798;10.178;2022-11-23T07:11:48;15.23;;;7.93;;
54372;SDS011;40271;48.798;10.178;2022-11-23T07:14:14;15.25;;;7.35;;
54372;SDS011;40271;48.798;10.178;2022-11-23T07:16:40;16.85;;;8.10;;
54372;SDS011;40271;48.798;10.178;2022-11-23T07:19:06;12.85;;;7.40;;
54372;SDS011;40271;48.798;10.178;2022-11-23T07:21:32;14.10;;;7.43;;
54372;SDS011;40271;48.798;10.178;2022-11-23T07:23:58;15.93;;;7.63;;
54372;SDS011;40271;48.798;10.178;2022-11-23T07:26:24;15.43;;;7.90;;
54372;SDS011;40271;48.798;10.178;2022-11-23T07:28:50;14.27;;;7.50;;
54372;SDS011;40271;48.798;10.178;2022-11-23T07:31:16;12.82;;;7.25;;
54372;SDS011;40271;48.798;10.178;2022-11-23T07:33:45;14.95;;;8.38;;
54372;SDS011;40271;48.798;10.178;2022-11-23T07:36:12;13.77;;;5.88;;
54372;SDS011;40271;48.798;10.178;2022-11-23T07:38:38;11.23;;;5.28;;
54372;SDS011;40271;48.798;10.178;2022-11-23T07:41:04;9.10;;;4.80;;
54372;SDS011;40271;48.798;10.178;2022-11-23T07:43:30;10.05;;;5.28;;
54372;SDS011;40271;48.798;10.178;2022-11-23T07:45:56;11.20;;;5.18;;
54372;SDS011;40271;48.798;10.178;2022-11-23T07:48:22;10.32;;;4.68;;
54372;SDS011;40271;48.798;10.178;2022-11-23T07:50:51;10.25;;;4.95;;
54372;SDS011;40271;48.798;10.178;2022-11-23T07:53:17;8.32;;;5.25;;
54372;SDS011;40271;48.798;10.178;2022-11-23T07:55:43;11.20;;;5.57;;
54372;SDS011;40271;48.798;10.178;2022-11-23T07:58:09;9.82;;;5.30;;
54372;SDS011;40271;48.798;10.178;2022-11-23T08:00:36;11.43;;;5.22;;
54372;SDS011;40271;48.798;10.178;2022-11-23T08:03:02;13.80;;;5.72;;
54372;SDS011;40271;48.798;10.178;2022-11-23T08:05:30;8.77;;;5.07;;
54372;SDS011;40271;48.798;10.178;2022-11-23T08:07:59;15.80;;;5.25;;
54372;SDS011;40271;48.798;10.178;2022-11-23T08:10:26;8.73;;;5.10;;
54372;SDS011;40271;48.798;10.178;2022-11-23T08:12:53;8.95;;;4.53;;
54372;SDS011;40271;48.798;10.178;2022-11-23T08:15:21;9.10;;;4.88;;
54372;SDS011;40271;48.798;10.178;2022-11-23T08:17:48;7.82;;;4.20;;
54372;SDS011;40271;48.798;10.178;2022-11-23T08:20:14;9.55;;;4.90;;
54372;SDS011;40271;48.798;10.178;2022-11-23T08:22:40;11.32;;;5.53;;
54372;SDS011;40271;48.798;10.178;2022-11-23T08:25:06;12.68;;;5.63;;
54372;SDS011;40271;48.798;10.178;2022-11-23T08:27:32;11.43;;;5.88;;
54372;SDS011;40271;48.798;10.178;2022-11-23T08:29:58;12.43;;;5.82;;
54372;SDS011;40271;48.798;10.178;2022-11-23T08:32:24;11.52;;;5.88;;
54372;SDS011;40271;48.798;10.178;2022-11-23T08:34:50;14.50;;;6.47;;
54372;SDS011;40271;48.798;10.178;2022-11-23T08:37:16;12.68;;;5.78;;
54372;SDS011;40271;48.798;10.178;2022-11-23T08:39:42;13.20;;;6.07;;
54372;SDS011;40271;48.798;10.178;2022-11-23T08:42:08;10.90;;;6.13;;
54372;SDS011;40271;48.798;10.178;2022-11-23T08:44:34;12.00;;;5.30;;
54372;SDS011;40271;48.798;10.178;2022-11-23T08:47:00;8.80;;;4.25;;
54372;SDS011;40271;48.798;10.178;2022-11-23T08:49:26;8.85;;;4.43;;
54372;SDS011;40271;48.798;10.178;2022-11-23T08:51:52;7.05;;;3.97;;
54372;SDS011;40271;48.798;10.178;2022-11-23T08:54:18;7.65;;;4.40;;
54372;SDS011;40271;48.798;10.178;2022-11-23T08:56:47;12.93;;;4.85;;
54372;SDS011;40271;48.798;10.178;2022-11-23T08:59:13;11.13;;;3.85;;
54372;SDS011;40271;48.798;10.178;2022-11-23T09:01:41;11.43;;;4.72;;
54372;SDS011;40271;48.798;10.178;2022-11-23T09:04:07;14.80;;;5.03;;
54372;SDS011;40271;48.798;10.178;2022-11-23T09:06:33;14.85;;;5.03;;
54372;SDS011;40271;48.798;10.178;2022-11-23T09:08:59;15.98;;;4.65;;
54372;SDS011;40271;48.798;10.178;2022-11-23T09:11:25;17.42;;;4.60;;
54372;SDS011;40271;48.798;10.178;2022-11-23T09:13:52;10.80;;;4.50;;
54372;SDS011;40271;48.798;10.178;2022-11-23T09:16:18;12.73;;;4.68;;
54372;SDS011;40271;48.798;10.178;2022-11-23T09:18:44;8.50;;;3.83;;
54372;SDS011;40271;48.798;10.178;2022-11-23T09:21:11;9.00;;;3.97;;
54372;SDS011;40271;48.798;10.178;2022-11-23T09:23:37;7.00;;;3.67;;
54372;SDS011;40271;48.798;10.178;2022-11-23T09:26:03;14.38;;;4.55;;
54372;SDS011;40271;48.798;10.178;2022-11-23T09:28:29;10.80;;;4.30;;
54372;SDS011;40271;48.798;10.178;2022-11-23T09:30:56;12.15;;;5.10;;
54372;SDS011;40271;48.798;10.178;2022-11-23T09:33:22;9.73;;;4.82;;
54372;SDS011;40271;48.798;10.178;2022-11-23T09:35:58;11.07;;;4.05;;
54372;SDS011;40271;48.798;10.178;2022-11-23T09:38:24;11.20;;;3.83;;
54372;SDS011;40271;48.798;10.178;2022-11-23T09:40:53;12.52;;;4.05;;
54372;SDS011;40271;48.798;10.178;2022-11-23T09:45:50;7.18;;;3.67;;
54372;SDS011;40271;48.798;10.178;2022-11-23T09:51:17;10.45;;;3.58;;
54372;SDS011;40271;48.798;10.178;2022-11-23T09:53:46;6.32;;;3.35;;
54372;SDS011;40271;48.798;10.178;2022-11-23T09:56:21;8.90;;;3.28;;
54372;SDS011;40271;48.798;10.178;2022-11-23T09:58:50;11.43;;;2.92;;
54372;SDS011;40271;48.798;10.178;2022-11-23T10:01:18;10.38;;;3.85;;
54372;SDS011;40271;48.798;10.178;2022-11-23T10:03:44;15.75;;;3.63;;
54372;SDS011;40271;48.798;10.178;2022-11-23T10:13:50;4.47;;;2.42;;
54372;SDS011;40271;48.798;10.178;2022-11-23T10:16:27;11.98;;;2.55;;
54372;SDS011;40271;48.798;10.178;2022-11-23T10:18:57;5.35;;;2.55;;
54372;SDS011;40271;48.798;10.178;2022-11-23T10:21:42;8.38;;;2.45;;
54372;SDS011;40271;48.798;10.178;2022-11-23T10:24:16;5.60;;;2.30;;
54372;SDS011;40271;48.798;10.178;2022-11-23T10:26:44;6.70;;;2.42;;
54372;SDS011;40271;48.798;10.178;2022-11-23T10:29:13;8.77;;;2.55;;
54372;SDS011;40271;48.798;10.178;2022-11-23T10:31:42;6.00;;;2.63;;
54372;SDS011;40271;48.798;10.178;2022-11-23T10:36:57;13.43;;;2.95;;
54372;SDS011;40271;48.798;10.178;2022-11-23T10:39:25;7.22;;;2.80;;
54372;SDS011;40271;48.798;10.178;2022-11-23T10:41:51;7.55;;;2.75;;
54372;SDS011;40271;48.798;10.178;2022-11-23T10:44:23;6.20;;;2.88;;
54372;SDS011;40271;48.798;10.178;2022-11-23T10:46:50;4.78;;;2.30;;
54372;SDS011;40271;48.798;10.178;2022-11-23T10:49:17;5.35;;;2.08;;
54372;SDS011;40271;48.798;10.178;2022-11-23T10:51:48;5.75;;;2.55;;
54372;SDS011;40271;48.798;10.178;2022-11-23T10:56:44;7.25;;;2.58;;
54372;SDS011;40271;48.798;10.178;2022-11-23T10:59:18;6.00;;;2.67;;
54372;SDS011;40271;48.798;10.178;2022-11-23T11:02:00;8.38;;;2.58;;
54372;SDS011;40271;48.798;10.178;2022-11-23T11:04:26;6.78;;;2.72;;
54372;SDS011;40271;48.798;10.178;2022-11-23T11:06:52;7.22;;;3.20;;
54372;SDS011;40271;48.798;10.178;2022-11-23T11:09:34;5.53;;;2.10;;
54372;SDS011;40271;48.798;10.178;2022-11-23T11:12:00;5.60;;;2.10;;
54372;SDS011;40271;48.798;10.178;2022-11-23T11:14:27;4.85;;;2.10;;
54372;SDS011;40271;48.798;10.178;2022-11-23T11:16:54;4.75;;;2.30;;
54372;SDS011;40271;48.798;10.178;2022-11-23T11:19:41;4.13;;;2.20;;
54372;SDS011;40271;48.798;10.178;2022-11-23T11:22:26;4.80;;;2.30;;
54372;SDS011;40271;48.798;10.178;2022-11-23T11:24:54;4.07;;;2.50;;
54372;SDS011;40271;48.798;10.178;2022-11-23T11:27:20;4.10;;;2.13;;
54372;SDS011;40271;48.798;10.178;2022-11-23T11:29:48;5.32;;;2.65;;
54372;SDS011;40271;48.798;10.178;2022-11-23T11:42:51;6.85;;;2.55;;
54372;SDS011;40271;48.798;10.178;2022-11-23T11:45:30;3.85;;;2.50;;
54372;SDS011;40271;48.798;10.178;2022-11-23T11:48:08;5.45;;;2.45;;
54372;SDS011;40271;48.798;10.178;2022-11-23T11:50:37;4.07;;;2.15;;
54372;SDS011;40271;48.798;10.178;2022-11-23T11:53:04;3.88;;;2.00;;
54372;SDS011;40271;48.798;10.178;2022-11-23T11:55:35;15.70;;;6.35;;
54372;SDS011;40271;48.798;10.178;2022-11-23T11:58:11;16.70;;;5.85;;
54372;SDS011;40271;48.798;10.178;2022-11-23T12:00:38;9.95;;;5.57;;
54372;SDS011;40271;48.798;10.178;2022-11-23T12:10:52;6.55;;;2.40;;
54372;SDS011;40271;48.798;10.178;2022-11-23T12:13:20;5.15;;;3.38;;
54372;SDS011;40271;48.798;10.178;2022-11-23T12:15:48;4.13;;;2.05;;
54372;SDS011;40271;48.798;10.178;2022-11-23T12:18:35;6.18;;;2.30;;
54372;SDS011;40271;48.798;10.178;2022-11-23T12:26:48;3.63;;;1.42;;
54372;SDS011;40271;48.798;10.178;2022-11-23T12:29:23;4.93;;;1.75;;
54372;SDS011;40271;48.798;10.178;2022-11-23T12:34:41;2.75;;;1.48;;
54372;SDS011;40271;48.798;10.178;2022-11-23T12:37:20;3.53;;;1.20;;
54372;SDS011;40271;48.798;10.178;2022-11-23T12:40:06;3.17;;;1.40;;
54372;SDS011;40271;48.798;10.178;2022-11-23T12:42:41;1.95;;;1.13;;
54372;SDS011;40271;48.798;10.178;2022-11-23T12:45:18;2.38;;;1.13;;
54372;SDS011;40271;48.798;10.178;2022-11-23T12:47:57;3.53;;;1.05;;
54372;SDS011;40271;48.798;10.178;2022-11-23T12:50:45;2.45;;;1.48;;
54372;SDS011;40271;48.798;10.178;2022-11-23T12:58:30;2.35;;;1.50;;
54372;SDS011;40271;48.798;10.178;2022-11-23T13:22:01;2.60;;;0.60;;
54372;SDS011;40271;48.798;10.178;2022-11-23T13:24:31;1.73;;;0.50;;
54372;SDS011;40271;48.798;10.178;2022-11-23T13:27:27;1.95;;;0.60;;
54372;SDS011;40271;48.798;10.178;2022-11-23T13:35:00;2.15;;;0.50;;
54372;SDS011;40271;48.798;10.178;2022-11-23T13:37:26;0.57;;;0.50;;
54372;SDS011;40271;48.798;10.178;2022-11-23T13:42:22;2.90;;;2.10;;
54372;SDS011;40271;48.798;10.178;2022-11-23T13:45:07;1.55;;;0.75;;
54372;SDS011;40271;48.798;10.178;2022-11-23T13:47:34;4.70;;;1.17;;
54372;SDS011;40271;48.798;10.178;2022-11-23T13:50:07;5.38;;;1.77;;
54372;SDS011;40271;48.798;10.178;2022-11-23T13:52:34;2.47;;;1.58;;
54372;SDS011;40271;48.798;10.178;2022-11-23T13:57:29;3.72;;;1.63;;
54372;SDS011;40271;48.798;10.178;2022-11-23T14:02:40;8.43;;;3.80;;
54372;SDS011;40271;48.798;10.178;2022-11-23T14:07:51;4.35;;;1.67;;
54372;SDS011;40271;48.798;10.178;2022-11-23T14:10:19;5.85;;;1.88;;
54372;SDS011;40271;48.798;10.178;2022-11-23T14:12:47;4.65;;;2.00;;
54372;SDS011;40271;48.798;10.178;2022-11-23T14:25:52;55.78;;;15.15;;
54372;SDS011;40271;48.798;10.178;2022-11-23T14:28:40;2.70;;;1.45;;
54372;SDS011;40271;48.798;10.178;2022-11-23T14:36:30;1.85;;;1.60;;
54372;SDS011;40271;48.798;10.178;2022-11-23T14:39:08;2.47;;;1.37;;
54372;SDS011;40271;48.798;10.178;2022-11-23T14:41:42;1.65;;;1.45;;
54372;SDS011;40271;48.798;10.178;2022-11-23T14:44:09;2.75;;;1.58;;
54372;SDS011;40271;48.798;10.178;2022-11-23T14:46:52;5.15;;;1.10;;
54372;SDS011;40271;48.798;10.178;2022-11-23T14:49:23;1.65;;;0.93;;
54372;SDS011;40271;48.798;10.178;2022-11-23T14:51:49;1.73;;;0.90;;
54372;SDS011;40271;48.798;10.178;2022-11-23T14:54:15;1.80;;;0.75;;
54372;SDS011;40271;48.798;10.178;2022-11-23T14:56:43;1.02;;;0.93;;
54372;SDS011;40271;48.798;10.178;2022-11-23T15:02:24;1.77;;;1.05;;
54372;SDS011;40271;48.798;10.178;2022-11-23T15:04:32;3.35;;;1.20;;
54372;SDS011;40271;48.798;10.178;2022-11-23T15:07:14;1.48;;;0.93;;
54372;SDS011;40271;48.798;10.178;2022-11-23T15:09:45;3.40;;;1.75;;
54372;SDS011;40271;48.798;10.178;2022-11-23T15:12:22;7.82;;;3.35;;
54372;SDS011;40271;48.798;10.178;2022-11-23T15:14:48;3.75;;;1.33;;
54372;SDS011;40271;48.798;10.178;2022-11-23T15:17:15;9.68;;;4.13;;
54372;SDS011;40271;48.798;10.178;2022-11-23T15:19:42;4.82;;;1.70;;
54372;SDS011;40271;48.798;10.178;2022-11-23T15:22:12;1.50;;;0.88;;
54372;SDS011;40271;48.798;10.178;2022-11-23T15:24:38;2.60;;;1.70;;
54372;SDS011;40271;48.798;10.178;2022-11-23T15:27:04;4.13;;;1.65;;
54372;SDS011;40271;48.798;10.178;2022-11-23T15:29:32;2.53;;;1.42;;
54372;SDS011;40271;48.798;10.178;2022-11-23T15:31:58;2.70;;;1.42;;
54372;SDS011;40271;48.798;10.178;2022-11-23T15:34:24;3.15;;;1.10;;
54372;SDS011;40271;48.798;10.178;2022-11-23T15:36:51;5.78;;;2.03;;
54372;SDS011;40271;48.798;10.178;2022-11-23T15:39:19;6.28;;;2.70;;
54372;SDS011;40271;48.798;10.178;2022-11-23T15:41:47;4.82;;;2.33;;
54372;SDS011;40271;48.798;10.178;2022-11-23T15:44:19;8.40;;;3.72;;
54372;SDS011;40271;48.798;10.178;2022-11-23T15:46:48;5.60;;;2.80;;
54372;SDS011;40271;48.798;10.178;2022-11-23T15:49:15;5.75;;;2.35;;
54372;SDS011;40271;48.798;10.178;2022-11-23T15:51:43;4.05;;;1.90;;
54372;SDS011;40271;48.798;10.178;2022-11-23T15:54:17;4.55;;;2.20;;
54372;SDS011;40271;48.798;10.178;2022-11-23T15:56:44;2.25;;;1.85;;
54372;SDS011;40271;48.798;10.178;2022-11-23T15:59:19;13.75;;;6.07;;
54372;SDS011;40271;48.798;10.178;2022-11-23T16:01:49;3.15;;;2.60;;
54372;SDS011;40271;48.798;10.178;2022-11-23T16:04:23;5.35;;;1.60;;
54372;SDS011;40271;48.798;10.178;2022-11-23T16:06:50;4.10;;;1.90;;
54372;SDS011;40271;48.798;10.178;2022-11-23T16:12:01;7.35;;;3.90;;
54372;SDS011;40271;48.798;10.178;2022-11-23T16:14:28;7.88;;;4.47;;
54372;SDS011;40271;48.798;10.178;2022-11-23T16:17:15;10.00;;;5.45;;
54372;SDS011;40271;48.798;10.178;2022-11-23T16:19:45;6.65;;;3.45;;
54372;SDS011;40271;48.798;10.178;2022-11-23T16:22:16;5.47;;;2.75;;
54372;SDS011;40271;48.798;10.178;2022-11-23T16:24:43;10.93;;;4.75;;
54372;SDS011;40271;48.798;10.178;2022-11-23T16:27:20;14.00;;;5.45;;
54372;SDS011;40271;48.798;10.178;2022-11-23T16:29:47;18.05;;;8.80;;